Pagrindinis puslapis
METAR-TAF:

METAR-TAF

Oro uostai :

Joensū, Suomija

platuma: 62-40N, ilguma: 029-38E, Aukštis: 119 m

Dabartinis oras

Ataskaita buvo paskelbta 29 minutes, ne 02:50 UTC
Vėjas 6 kt iš Vakarų, svyruoja nuo Vakarų/Pietvakarių ir Šiaurės/Šiaurės Vakarų
Temperatūra 13°C
Drėgmė 94%
Slėgis 1012 hPa
Matomumas 10 km arba daugiau
Su prošvaistėmis ne aukštis 800 ft
Su prošvaistėmis ne aukštis 7300 ft

METAR: EFJO 240250Z AUTO 28006KT 240V330 9999 BKN008 BKN073 13/12 Q1012

Laikas: 06:19 (03:19 UTC)

Prognozė

Ataskaita buvo paskelbta 54 minutes, ne 02:25 UTC
Prognozė galioja nuo 24 metu 03 UTC su 24 metu 12 UTC
Vėjas 6 kt iš Vakarų/Šiaurės Vakarų
Matomumas 10 km arba daugiau
Su prošvaistėmis ne aukštis 600 ft
Tapsmas
nuo 24 metu 03 UTC su 24 metu 05 UTC
Su prošvaistėmis ne aukštis 1000 ft
Tapsmas
nuo 24 metu 06 UTC su 24 metu 08 UTC
Išsisklaidę debesys ne aukštis 1500 ft

TAF: EFJO 240225Z 2403/2412 29006KT 9999 BKN006 BECMG 2403/2405 BKN010 BECMG 2406/2408 SCT015

Orai ataskaitas ir orų prognozės (METAR, TAF).

turimą stotys yra geltonos ir raudonos taškus žemėlapyje.

Perkelti pele per norėdami pamatyti stoties vardą.

Tada spustelėkite, norėdami matyti oro stebėjimo ir prognozės.

Norėdami pakeisti žemėlapį: spustelėkite ant žalios mygtukų su juodo kryžiaus žemyn,; žalią mygtuką su brūkšneliu, jei norite nutolinti; arba žalių rodyklių gretimoms žemėlapius.


METAR-TAF: